Terminal Aerodrome Forecast
Issued by NWS Cleveland, OH

Home | Current Version | Previous Version | Graphics & Text | Print | Product List | Glossary Off
Versions: 1 2 3 4 5 6 7 8 9 10 11 12 13 14 15 16 17 18 19 20 21 22 23 24 25 26 27

136
FTUS41 KCLE 301006 AAA
TAFMFD
TAF AMD
KMFD 301006Z 3010/0106 VRB03KT 6SM BR SKC
      TEMPO 3010/3011 3SM BR
     FM301200 06004KT P6SM BKN012
     FM301500 08010KT P6SM SCT012 BKN150
     FM302100 09012KT 6SM -RA BR OVC035
     FM010100 09012KT 3SM -RA OVC005
     FM010500 15012KT 5SM -SHRA SCT005 OVC010=

USA.gov is the U.S. government's official web portal to all federal, state and local government web resources and services.